Time;durP1;ratioP1;P1;durP2;ratioP2;P2;SDS_P1;SDS_P2;PMS_P1;PMS_P2;Temp;Humidity;BMP_temperature;BMP_pressure;BME280_temperature;BME280_humidity;BME280_pressure;Samples;Min_cycle;Max_cycle;Signal;HPM_P1;HPM_P2
2023/08/28 00:02:26;;;;;;;14.85;11.48;;;;;;;23.77;55.22;101327.63;5095023;28;20136;-51
2023/08/28 00:04:52;;;;;;;16.63;10.50;;;;;;;23.88;54.48;101326.47;5094872;28;20020;-52
2023/08/28 00:07:18;;;;;;;17.65;11.18;;;;;;;23.62;55.30;101327.69;5094940;28;20024;-53
2023/08/28 00:09:45;;;;;;;20.02;11.38;;;;;;;23.66;56.33;101326.88;5093681;28;20058;-52
2023/08/28 00:12:11;;;;;;;17.50;11.80;;;;;;;23.41;56.57;101324.22;5094903;28;20059;-55
2023/08/28 00:14:37;;;;;;;15.50;9.65;;;;;;;23.61;57.86;101318.66;5094728;28;20032;-52
2023/08/28 00:17:05;;;;;;;17.67;10.63;;;;;;;23.42;58.37;101321.22;5094859;28;20082;-50
2023/08/28 00:19:31;;;;;;;19.88;11.50;;;;;;;23.12;59.24;101316.69;5090839;28;20043;-50
2023/08/28 00:21:57;;;;;;;23.60;12.43;;;;;;;22.83;60.33;101318.41;5084116;28;20551;-52
2023/08/28 00:24:23;;;;;;;22.92;12.35;;;;;;;22.68;61.84;101319.22;5089406;28;20040;-52
2023/08/28 00:26:50;;;;;;;19.20;11.73;;;;;;;22.63;62.22;101317.31;5087532;28;20027;-52
2023/08/28 00:29:16;;;;;;;19.42;11.93;;;;;;;22.79;61.27;101320.84;5094403;28;20073;-48
2023/08/28 00:31:42;;;;;;;21.67;12.32;;;;;;;22.63;62.38;101322.78;5094428;28;20129;-53
2023/08/28 00:34:08;;;;;;;22.00;12.63;;;;;;;22.42;63.12;101323.88;5094051;28;20474;-49
2023/08/28 00:36:35;;;;;;;20.23;12.02;;;;;;;22.36;63.06;101320.34;5090784;28;20100;-50
2023/08/28 00:39:01;;;;;;;24.33;11.90;;;;;;;22.35;62.91;101328.81;5087036;28;20020;-50
2023/08/28 00:41:27;;;;;;;23.23;12.90;;;;;;;22.11;63.89;101312.19;5094221;28;20031;-51
2023/08/28 00:43:53;;;;;;;28.25;13.52;;;;;;;22.17;64.31;101327.44;5093852;28;20016;-51
2023/08/28 00:46:19;;;;;;;23.77;12.32;;;;;;;;;;5093828;28;20020;-51
2023/08/28 00:48:46;;;;;;;20.63;12.90;;;;;;;21.78;65.86;101319.72;5093792;28;20112;-51
2023/08/28 00:51:13;;;;;;;23.92;12.35;;;;;;;21.85;66.02;101316.72;5093811;28;20067;-49
2023/08/28 00:53:39;;;;;;;19.23;12.32;;;;;;;21.74;66.52;101323.25;5093666;28;20063;-49
2023/08/28 00:56:06;;;;;;;23.35;12.18;;;;;;;21.92;66.60;101324.66;5093802;28;20062;-51
2023/08/28 00:58:33;;;;;;;22.48;12.90;;;;;;;21.95;65.93;101321.38;5093421;28;20428;-49
2023/08/28 01:00:59;;;;;;;26.23;12.77;;;;;;;21.80;66.30;101319.44;5093665;28;20030;-47
2023/08/28 01:03:25;;;;;;;20.52;12.32;;;;;;;21.72;66.39;101318.06;5093377;28;20409;-48
2023/08/28 01:06:16;;;;;;;29.02;14.65;;;;;;;21.71;66.59;101319.16;5093723;28;20027;-48
2023/08/28 01:09:13;;;;;;;24.95;13.98;;;;;;;21.33;67.92;101310.31;5093384;28;20035;-48
2023/08/28 01:11:42;;;;;;;23.52;12.93;;;;;;;21.47;67.70;101324.25;5075233;28;20016;-49
2023/08/28 01:14:28;;;;;;;21.83;13.23;;;;;;;21.28;67.50;101310.28;5084522;28;20534;-49
2023/08/28 01:17:03;;;;;;;22.35;13.10;;;;;;;20.99;68.88;101303.59;5113867;28;20031;-48
2023/08/28 01:19:38;;;;;;;21.65;12.80;;;;;;;21.15;69.00;101302.56;5113691;28;20027;-48
2023/08/28 01:22:16;;;;;;;;;;;;;;;21.42;67.65;101310.63;5114023;28;20469;-48
2023/08/28 01:24:49;;;;;;;23.15;13.80;;;;;;;21.17;68.28;101307.78;5113109;28;20284;-49
2023/08/28 01:27:16;;;;;;;24.75;12.65;;;;;;;21.23;68.66;101304.81;5113519;28;20031;-49
2023/08/28 01:29:42;;;;;;;24.00;13.05;;;;;;;21.03;69.34;101304.69;5113262;28;20034;-49
2023/08/28 01:32:09;;;;;;;22.60;12.30;;;;;;;21.11;69.16;101292.50;5113302;28;20535;-49
2023/08/28 01:34:39;;;;;;;22.90;13.07;;;;;;;20.80;69.67;101303.22;5095210;28;20031;-48
2023/08/28 01:37:15;;;;;;;20.02;11.85;;;;;;;20.85;68.88;101295.09;5091819;28;20034;-49
2023/08/28 01:39:46;;;;;;;19.17;12.38;;;;;;;20.72;68.67;101290.13;5092809;28;20086;-56
2023/08/28 01:42:13;;;;;;;26.52;12.07;;;;;;;20.90;68.63;101294.28;5092928;28;20049;-51
2023/08/28 01:44:40;;;;;;;18.40;11.40;;;;;;;20.86;69.40;101294.00;5092400;28;20027;-49
2023/08/28 01:47:07;;;;;;;24.52;12.75;;;;;;;20.60;69.54;101292.19;5092420;28;20031;-52
2023/08/28 01:49:34;;;;;;;21.75;12.35;;;;;;;20.62;70.21;101295.50;5092914;28;20090;-52
2023/08/28 01:52:00;;;;;;;21.30;12.45;;;;;;;20.49;71.00;101302.22;5092455;28;20715;-54
2023/08/28 01:54:26;;;;;;;21.80;12.85;;;;;;;20.73;70.30;101303.44;5091988;28;20103;-54
2023/08/28 01:56:53;;;;;;;21.98;11.68;;;;;;;20.62;71.22;101301.75;5086109;28;20104;-55
2023/08/28 01:59:19;;;;;;;17.55;12.23;;;;;;;20.59;72.01;101299.53;5072628;28;20056;-55
2023/08/28 02:01:46;;;;;;;25.20;12.77;;;;;;;20.40;72.83;101303.72;5072796;28;20039;-55
2023/08/28 02:04:12;;;;;;;24.30;12.85;;;;;;;20.43;72.36;101304.03;5071912;28;20074;-55
2023/08/28 02:06:38;;;;;;;18.40;12.18;;;;;;;20.09;73.33;101314.31;5072573;28;20107;-55
2023/08/28 02:09:04;;;;;;;21.52;12.50;;;;;;;20.14;73.85;101310.84;5072443;28;20032;-55
2023/08/28 02:11:30;;;;;;;26.75;13.27;;;;;;;20.08;74.27;101301.00;5072324;28;20028;-53
2023/08/28 02:13:57;;;;;;;20.67;11.88;;;;;;;19.96;74.87;101298.47;5072058;28;20055;-54
2023/08/28 02:16:23;;;;;;;26.40;13.00;;;;;;;20.16;73.98;101301.38;5092155;28;20031;-54
2023/08/28 02:18:49;;;;;;;22.38;12.80;;;;;;;20.20;73.37;101294.31;5092662;28;20457;-54
2023/08/28 02:21:15;;;;;;;20.83;11.77;;;;;;;20.06;73.55;101287.69;5092180;28;20034;-54
2023/08/28 02:23:41;;;;;;;22.23;12.60;;;;;;;19.89;74.60;101295.13;5092109;28;20547;-54
2023/08/28 02:26:08;;;;;;;18.85;12.35;;;;;;;19.66;75.36;101286.22;5092071;28;20144;-53
2023/08/28 02:28:34;;;;;;;23.52;12.43;;;;;;;19.40;76.28;101285.06;5092581;28;20047;-50
2023/08/28 02:31:00;;;;;;;19.40;12.32;;;;;;;19.61;75.63;101283.44;5097298;28;20107;-52
2023/08/28 02:33:28;;;;;;;29.90;13.45;;;;;;;19.41;76.37;101296.75;5078567;28;20444;-50
2023/08/28 02:35:54;;;;;;;27.40;12.82;;;;;;;19.09;77.61;101294.72;5071805;28;20071;-49
2023/08/28 02:38:20;;;;;;;24.55;12.65;;;;;;;19.11;78.00;101294.50;5080821;28;20028;-49
2023/08/28 02:40:46;;;;;;;17.48;11.50;;;;;;;19.32;77.03;101290.13;5071460;28;20028;-49
2023/08/28 02:43:13;;;;;;;19.10;11.93;;;;;;;19.08;78.04;101297.69;5071306;28;20032;-51
2023/08/28 02:45:40;;;;;;;23.40;13.38;;;;;;;18.93;78.29;101303.72;5071571;28;20063;-52
2023/08/28 02:48:09;;;;;;;21.15;12.07;;;;;;;18.86;79.10;101305.81;5070964;28;20027;-49
2023/08/28 02:50:35;;;;;;;21.48;11.77;;;;;;;18.81;78.83;101300.31;5071294;28;20040;-50
2023/08/28 02:53:03;;;;;;;22.58;13.30;;;;;;;18.68;79.79;101298.78;5071419;28;20054;-50
2023/08/28 02:55:39;;;;;;;23.02;12.27;;;;;;;18.54;80.66;101303.66;5071334;28;20083;-51
2023/08/28 02:58:05;;;;;;;21.98;12.57;;;;;;;18.61;80.40;101300.81;5091523;28;20486;-52
2023/08/28 03:00:33;;;;;;;21.30;11.75;;;;;;;18.48;81.14;101300.06;5091696;28;20493;-53
2023/08/28 03:03:00;;;;;;;20.83;11.25;;;;;;;18.54;80.84;101302.84;5091482;28;20497;-51
2023/08/28 03:05:27;;;;;;;20.10;11.52;;;;;;;18.41;81.22;101299.41;5091733;28;20032;-49
2023/08/28 03:07:54;;;;;;;25.08;12.30;;;;;;;18.32;82.32;101300.06;5091767;28;20067;-51
2023/08/28 03:10:20;;;;;;;24.73;12.60;;;;;;;18.29;81.89;101306.81;5092013;28;20028;-50
2023/08/28 03:12:46;;;;;;;19.98;12.15;;;;;;;18.11;82.63;101309.75;5091707;28;20032;-51
2023/08/28 03:15:12;;;;;;;21.38;12.68;;;;;;;18.19;82.35;101298.50;5091671;28;20036;-52
2023/08/28 03:17:38;;;;;;;19.88;11.75;;;;;;;18.11;83.37;101315.19;5091989;28;20577;-51
2023/08/28 03:20:09;;;;;;;21.05;12.10;;;;;;;18.07;82.86;101316.72;5087764;28;20119;-51
2023/08/28 03:22:35;;;;;;;24.63;12.35;;;;;;;18.06;83.21;101324.03;5071634;28;20063;-52
2023/08/28 03:25:01;;;;;;;24.25;12.13;;;;;;;17.98;83.58;101327.13;5075281;28;20016;-52
2023/08/28 03:27:28;;;;;;;21.10;11.90;;;;;;;17.88;84.35;101324.25;5078281;28;20037;-53
2023/08/28 03:29:54;;;;;;;22.13;11.70;;;;;;;17.86;84.70;101327.19;5071178;28;20103;-53
2023/08/28 03:32:20;;;;;;;21.40;12.40;;;;;;;17.67;85.48;101329.25;5053231;28;20082;-50
2023/08/28 03:34:46;;;;;;;21.42;11.23;;;;;;;17.77;85.23;101328.66;5071029;28;20035;-52
2023/08/28 03:37:13;;;;;;;23.25;11.63;;;;;;;17.76;84.67;101332.41;5070923;28;20059;-52
2023/08/28 03:39:39;;;;;;;23.00;11.40;;;;;;;17.74;85.06;101326.41;5074802;28;20153;-53
2023/08/28 03:42:05;;;;;;;21.25;11.82;;;;;;;17.53;85.37;101327.84;5080627;28;20016;-51
2023/08/28 03:44:32;;;;;;;22.38;11.35;;;;;;;17.74;84.40;101329.13;5091059;28;20024;-51
2023/08/28 03:46:58;;;;;;;23.90;11.90;;;;;;;17.74;84.09;101339.94;5091524;28;20055;-53
2023/08/28 03:49:26;;;;;;;20.95;11.20;;;;;;;17.69;83.97;101337.94;5111703;28;20051;-52
2023/08/28 03:51:54;;;;;;;16.55;10.48;;;;;;;17.77;83.36;101331.34;5111404;28;20113;-50
2023/08/28 03:54:21;;;;;;;19.65;11.60;;;;;;;17.85;82.77;101333.66;5111682;28;20031;-49
2023/08/28 03:56:47;;;;;;;17.83;11.07;;;;;;;17.72;83.51;101323.13;5102317;28;20067;-51
2023/08/28 03:59:13;;;;;;;18.25;10.63;;;;;;;17.79;83.39;101339.22;5092907;28;20055;-50
2023/08/28 04:01:40;;;;;;;18.83;10.60;;;;;;;17.91;82.10;101334.59;5094618;28;20386;-52
2023/08/28 04:04:06;;;;;;;18.88;11.13;;;;;;;17.83;82.67;101338.50;5094571;28;20028;-52
2023/08/28 04:06:32;;;;;;;17.20;10.93;;;;;;;17.91;82.28;101340.81;5094619;28;20067;-53
2023/08/28 04:08:59;;;;;;;22.55;10.43;;;;;;;17.87;82.16;101344.25;5094567;28;20073;-52
2023/08/28 04:11:25;;;;;;;18.98;10.75;;;;;;;17.87;82.13;101349.66;5094742;28;20081;-53
2023/08/28 04:13:51;;;;;;;20.42;11.20;;;;;;;17.82;82.26;101336.88;5094201;28;20016;-53
2023/08/28 04:16:21;;;;;;;16.25;10.10;;;;;;;17.74;82.93;101341.84;5079806;28;20024;-53
2023/08/28 04:18:47;;;;;;;22.42;10.60;;;;;;;17.76;82.32;101337.00;5074423;28;20032;-52
2023/08/28 04:21:14;;;;;;;19.80;10.45;;;;;;;17.75;82.32;101344.28;5074163;28;20032;-52
2023/08/28 04:23:40;;;;;;;15.57;10.23;;;;;;;17.82;82.17;101344.16;5073583;28;20056;-51
2023/08/28 04:26:07;;;;;;;19.65;10.40;;;;;;;17.86;81.82;101348.84;5074033;28;20032;-52
2023/08/28 04:28:33;;;;;;;16.08;10.13;;;;;;;17.81;82.27;101346.03;5074083;28;20050;-52
2023/08/28 04:30:59;;;;;;;21.73;11.05;;;;;;;17.73;82.47;101346.44;5074029;28;20033;-50
2023/08/28 04:33:26;;;;;;;19.23;10.80;;;;;;;17.63;82.82;101351.63;5093763;28;20035;-51
2023/08/28 04:35:52;;;;;;;21.30;10.23;;;;;;;17.72;82.20;101350.22;5114680;28;20028;-52
2023/08/28 04:38:18;;;;;;;18.55;11.20;;;;;;;17.73;82.76;101351.03;5114219;28;20026;-53
2023/08/28 04:40:44;;;;;;;19.13;10.25;;;;;;;17.77;82.31;101349.50;5114566;28;20020;-52
2023/08/28 04:43:11;;;;;;;19.45;11.40;;;;;;;17.93;81.04;101345.97;5114046;28;20028;-52
2023/08/28 04:45:37;;;;;;;21.52;10.65;;;;;;;17.89;81.14;101351.09;5114350;28;20023;-52
2023/08/28 04:48:03;;;;;;;17.88;11.27;;;;;;;17.88;81.31;101354.84;5114139;28;20477;-50
2023/08/28 04:50:30;;;;;;;19.20;10.60;;;;;;;17.84;81.63;101352.88;5113990;28;20031;-51
2023/08/28 04:52:56;;;;;;;16.45;9.90;;;;;;;17.84;81.49;101344.75;5113950;28;20031;-52
2023/08/28 04:55:22;;;;;;;14.70;10.07;;;;;;;17.96;81.17;101348.22;5114070;28;20509;-50
2023/08/28 04:57:49;;;;;;;20.70;10.95;;;;;;;17.81;82.60;101353.34;5095915;28;20569;-51
2023/08/28 05:00:15;;;;;;;18.23;10.52;;;;;;;17.96;82.24;101347.41;5094042;28;20027;-51
2023/08/28 05:02:41;;;;;;;20.20;11.38;;;;;;;17.84;82.62;101350.97;5093634;28;20032;-52
2023/08/28 05:05:08;;;;;;;22.40;11.88;;;;;;;17.89;82.63;101351.09;5093343;28;20051;-50
2023/08/28 05:07:34;;;;;;;20.38;12.52;;;;;;;17.71;83.24;101356.63;5093022;28;20034;-51
2023/08/28 05:10:00;;;;;;;16.13;10.23;;;;;;;17.85;82.44;101355.31;5104653;28;20070;-50
2023/08/28 05:12:26;;;;;;;22.77;12.80;;;;;;;17.92;81.13;101341.63;5114058;28;20027;-45
2023/08/28 05:14:53;;;;;;;16.80;11.27;;;;;;;17.77;81.62;101346.78;5108074;28;20489;-46
2023/08/28 05:17:19;;;;;;;25.48;12.23;;;;;;;17.69;82.12;101353.34;5079560;28;20028;-46
2023/08/28 05:19:45;;;;;;;21.95;12.73;;;;;;;17.74;81.02;101349.97;5107045;28;20564;-46
2023/08/28 05:22:11;;;;;;;29.98;12.50;;;;;;;17.81;80.60;101354.16;5093062;28;20107;-46
2023/08/28 05:24:38;;;;;;;20.80;10.88;;;;;;;17.75;81.20;101349.72;5092928;28;20024;-46
2023/08/28 05:27:04;;;;;;;20.55;10.65;;;;;;;17.82;81.16;101346.84;5093015;28;20024;-44
2023/08/28 05:29:31;;;;;;;14.95;9.57;;;;;;;17.70;82.24;101346.88;5092788;28;20098;-44
2023/08/28 05:31:57;;;;;;;20.35;10.80;;;;;;;17.84;82.36;101345.56;5093015;28;20031;-44
2023/08/28 05:34:23;;;;;;;20.08;10.10;;;;;;;17.76;82.35;101340.53;5092551;28;20504;-45
2023/08/28 05:36:49;;;;;;;13.48;9.35;;;;;;;17.74;82.52;101339.94;5093021;28;20055;-45
2023/08/28 05:39:15;;;;;;;20.83;10.90;;;;;;;17.75;83.05;101347.00;5092457;28;20095;-45
2023/08/28 05:41:41;;;;;;;17.58;10.38;;;;;;;17.73;83.33;101340.19;5092855;28;20081;-46
2023/08/28 05:44:08;;;;;;;19.13;10.10;;;;;;;17.83;82.52;101341.22;5092385;28;20024;-46
2023/08/28 05:46:34;;;;;;;20.13;10.43;;;;;;;17.83;82.85;101334.97;5093056;28;20463;-45
2023/08/28 05:49:00;;;;;;;16.70;10.93;;;;;;;17.80;83.28;101346.28;5093222;28;20036;-45
2023/08/28 05:51:26;;;;;;;19.83;10.05;;;;;;;17.74;83.24;101341.84;5110399;28;20044;-46
2023/08/28 05:53:52;;;;;;;18.85;10.82;;;;;;;17.45;85.30;101341.78;5112696;28;20019;-46
2023/08/28 05:56:19;;;;;;;16.27;10.60;;;;;;;17.49;85.38;101342.97;5112777;28;20020;-47
2023/08/28 05:58:45;;;;;;;15.85;9.68;;;;;;;17.66;84.84;101335.72;5112957;28;20055;-46
2023/08/28 06:01:11;;;;;;;18.90;10.23;;;;;;;17.52;84.90;101342.47;5112828;28;20035;-47
2023/08/28 06:03:37;;;;;;;18.50;10.13;;;;;;;17.61;84.83;101353.75;5112567;28;20098;-47
2023/08/28 06:06:03;;;;;;;16.33;10.32;;;;;;;17.57;84.49;101347.16;5112496;28;20034;-47
2023/08/28 06:08:30;;;;;;;16.75;11.00;;;;;;;17.48;84.78;101352.13;5112685;28;20117;-47
2023/08/28 06:10:56;;;;;;;20.50;11.85;;;;;;;17.42;85.03;101350.38;5112841;28;20028;-47
2023/08/28 06:13:22;;;;;;;17.25;11.18;;;;;;;17.54;84.29;101351.16;5111096;28;20411;-53
2023/08/28 06:15:48;;;;;;;33.75;12.60;;;;;;;17.49;84.29;101344.81;5081339;28;20102;-46
2023/08/28 06:18:14;;;;;;;24.35;12.32;;;;;;;17.42;84.67;101339.53;5071514;28;20378;-47
2023/08/28 06:20:41;;;;;;;17.83;10.90;;;;;;;17.42;84.98;101336.84;5071952;28;20036;-47
2023/08/28 06:23:07;;;;;;;18.30;11.27;;;;;;;17.33;85.52;101338.28;5070944;28;20111;-47
2023/08/28 06:25:33;;;;;;;19.80;11.40;;;;;;;17.27;85.64;101334.66;5071816;28;20402;-48
2023/08/28 06:27:59;;;;;;;21.13;12.10;;;;;;;17.25;85.96;101327.81;5071596;28;20043;-48
2023/08/28 06:30:26;;;;;;;17.30;11.57;;;;;;;17.36;85.38;101332.38;5071463;28;20028;-48
2023/08/28 06:32:52;;;;;;;21.38;12.05;;;;;;;17.14;86.46;101324.06;5082637;28;20468;-57
2023/08/28 06:35:18;;;;;;;19.65;12.15;;;;;;;17.21;86.40;101322.06;5112034;28;20038;-56
2023/08/28 06:37:45;;;;;;;22.25;11.73;;;;;;;17.21;86.19;101322.06;5112226;28;20028;-48
2023/08/28 06:40:11;;;;;;;19.55;10.48;;;;;;;17.12;87.14;101320.78;5111848;28;20031;-50
2023/08/28 06:42:38;;;;;;;20.05;11.93;;;;;;;17.13;87.00;101323.25;5112063;28;20035;-50
2023/08/28 06:45:05;;;;;;;19.92;11.13;;;;;;;17.06;86.77;101332.56;5112152;28;20024;-50
2023/08/28 06:47:31;;;;;;;18.92;10.73;;;;;;;17.19;86.24;101331.47;5111881;28;20024;-51
2023/08/28 06:49:58;;;;;;;19.48;10.15;;;;;;;16.96;87.41;101333.16;5111853;28;20039;-52
2023/08/28 06:52:24;;;;;;;18.45;9.88;;;;;;;17.01;86.38;101329.75;5111954;28;20114;-50
2023/08/28 06:54:51;;;;;;;24.42;11.68;;;;;;;16.89;85.83;101330.56;5111880;28;20117;-49
2023/08/28 06:57:17;;;;;;;19.90;10.25;;;;;;;16.85;85.94;101329.41;5112014;28;20484;-49
2023/08/28 06:59:43;;;;;;;16.08;9.73;;;;;;;16.96;85.76;101321.53;5112424;28;20028;-49
2023/08/28 07:02:09;;;;;;;19.33;9.63;;;;;;;17.00;85.24;101328.94;5111869;28;20042;-49
2023/08/28 07:04:36;;;;;;;17.50;9.60;;;;;;;17.12;84.64;101323.50;5111413;28;20024;-49
2023/08/28 07:07:02;;;;;;;20.45;10.70;;;;;;;16.99;85.23;101319.19;5112136;28;20481;-49
2023/08/28 07:09:28;;;;;;;15.02;10.32;;;;;;;17.06;85.04;101324.44;5111809;28;20032;-49
2023/08/28 07:11:54;;;;;;;16.50;9.68;;;;;;;16.97;85.06;101318.56;5112241;28;20027;-49
2023/08/28 07:14:20;;;;;;;18.20;9.75;;;;;;;16.82;86.59;101329.03;5111631;28;20028;-48
2023/08/28 07:16:47;;;;;;;16.35;10.63;;;;;;;16.99;85.77;101324.59;5074393;28;20025;-48
2023/08/28 07:19:13;;;;;;;17.77;10.32;;;;;;;17.03;85.13;101325.72;5071321;28;20147;-49
2023/08/28 07:21:39;;;;;;;17.10;10.02;;;;;;;17.07;85.19;101321.50;5071091;28;20090;-49
2023/08/28 07:24:06;;;;;;;20.25;9.93;;;;;;;17.02;85.43;101329.50;5070721;28;20021;-49
2023/08/28 07:26:32;;;;;;;21.23;9.57;;;;;;;16.87;86.79;101326.44;5071111;28;20029;-49
2023/08/28 07:28:58;;;;;;;22.38;10.40;;;;;;;16.87;87.20;101324.56;5071327;28;20024;-49
2023/08/28 07:31:24;;;;;;;16.13;10.15;;;;;;;16.88;86.27;101333.53;5071301;28;20083;-49
2023/08/28 07:33:50;;;;;;;24.60;10.82;;;;;;;16.77;86.34;101324.34;5099186;28;20023;-51
2023/08/28 07:36:22;;;;;;;16.00;9.45;;;;;;;16.89;85.92;101329.75;5115539;28;20020;-48
2023/08/28 07:38:48;;;;;;;16.05;9.23;;;;;;;16.82;86.03;101323.63;5115691;28;20031;-48
2023/08/28 07:41:16;;;;;;;18.38;9.82;;;;;;;16.92;85.67;101333.84;5115850;28;20435;-48
2023/08/28 07:43:44;;;;;;;13.80;8.07;;;;;;;16.84;85.65;101332.34;5115045;28;20477;-49
2023/08/28 07:46:10;;;;;;;20.23;10.10;;;;;;;16.69;85.58;101323.84;5115220;28;20063;-48
2023/08/28 07:48:36;;;;;;;15.82;8.80;;;;;;;16.79;85.17;101326.81;5115434;28;20374;-48
2023/08/28 07:51:04;;;;;;;17.30;10.50;;;;;;;16.95;84.30;101326.09;5115241;28;20069;-51
2023/08/28 07:53:30;;;;;;;18.77;10.15;;;;;;;16.69;85.49;101330.06;5115225;28;20187;-49
2023/08/28 07:55:56;;;;;;;16.05;10.02;;;;;;;16.73;85.03;101319.66;5115104;28;20026;-48
2023/08/28 07:58:22;;;;;;;17.48;10.02;;;;;;;16.78;84.64;101314.38;5115170;28;20043;-48
2023/08/28 08:00:49;;;;;;;18.00;10.05;;;;;;;16.95;84.12;101311.75;5115021;28;20549;-49
2023/08/28 08:03:15;;;;;;;17.90;9.93;;;;;;;16.87;84.49;101321.03;5114988;28;20016;-49
2023/08/28 08:05:41;;;;;;;16.77;9.38;;;;;;;16.73;84.65;101315.06;5115025;28;20020;-48
2023/08/28 08:08:07;;;;;;;20.85;9.90;;;;;;;16.67;85.17;101315.16;5114993;28;20032;-49
2023/08/28 08:10:36;;;;;;;17.55;9.70;;;;;;;16.66;85.88;101313.47;5114890;28;20035;-49
2023/08/28 08:13:02;;;;;;;21.83;10.20;;;;;;;16.81;85.32;101305.75;5114979;28;20023;-49
2023/08/28 08:15:29;;;;;;;16.65;9.32;;;;;;;16.66;85.99;101318.88;5099148;28;20028;-51
2023/08/28 08:17:55;;;;;;;15.70;8.85;;;;;;;16.56;86.62;101314.91;5074723;28;20482;-49
2023/08/28 08:20:21;;;;;;;18.27;10.10;;;;;;;16.57;86.61;101323.84;5073990;28;20107;-48
2023/08/28 08:22:48;;;;;;;17.15;9.27;;;;;;;16.59;86.77;101324.41;5073905;28;20024;-49
2023/08/28 08:25:14;;;;;;;16.52;8.77;;;;;;;16.60;87.32;101326.91;5074331;28;20111;-48
2023/08/28 08:27:44;;;;;;;17.65;9.55;;;;;;;16.63;87.12;101320.19;5074164;28;20020;-49
2023/08/28 08:30:13;;;;;;;17.55;9.10;;;;;;;16.63;87.37;101310.22;5074022;28;20130;-49
2023/08/28 08:32:39;;;;;;;18.98;10.88;;;;;;;16.46;88.64;101325.47;5080729;28;20019;-48
2023/08/28 08:35:06;;;;;;;19.48;8.73;;;;;;;16.62;87.97;101319.38;5114539;28;20040;-48
2023/08/28 08:37:33;;;;;;;14.77;9.95;;;;;;;16.45;88.77;101320.31;5114880;28;20449;-48
2023/08/28 08:39:59;;;;;;;16.63;10.27;;;;;;;16.31;89.49;101317.81;5114184;28;20325;-48
2023/08/28 08:42:25;;;;;;;17.35;10.20;;;;;;;16.24;89.34;101314.38;5114090;28;20392;-48
2023/08/28 08:44:52;;;;;;;22.23;9.95;;;;;;;16.14;90.06;101305.22;5113284;28;20027;-48
2023/08/28 08:47:19;;;;;;;18.23;9.45;;;;;;;16.25;89.51;101310.63;5114163;28;20028;-48
2023/08/28 08:49:52;;;;;;;17.90;9.88;;;;;;;16.40;88.71;101302.09;5114592;28;20024;-51
2023/08/28 08:52:22;;;;;;;22.58;11.80;;;;;;;16.18;89.96;101303.69;5114102;28;20112;-51
2023/08/28 08:54:55;;;;;;;20.40;10.05;;;;;;;16.14;89.89;101305.22;5114248;28;20075;-49
2023/08/28 08:57:34;;;;;;;15.45;9.70;;;;;;;16.20;89.87;101302.41;5114248;28;20024;-54
2023/08/28 09:00:01;;;;;;;24.90;10.82;;;;;;;16.29;90.06;101305.59;5114296;28;20038;-52
2023/08/28 09:02:30;;;;;;;14.40;9.90;;;;;;;16.44;89.37;101299.75;5113812;28;20023;-49
2023/08/28 09:04:57;;;;;;;17.33;10.32;;;;;;;16.33;90.11;101302.19;5113759;28;20023;-49
2023/08/28 09:07:25;;;;;;;16.63;10.55;;;;;;;16.27;91.03;101289.63;5114038;28;20081;-49
2023/08/28 09:09:52;;;;;;;20.73;9.35;;;;;;;16.35;90.35;101296.56;5095748;28;20031;-47
2023/08/28 09:12:18;;;;;;;21.58;10.55;;;;;;;16.24;91.23;101295.47;5113549;28;20023;-49
2023/08/28 09:14:46;;;;;;;18.83;9.13;;;;;;;16.42;90.81;101289.16;5110126;28;20819;-49
2023/08/28 09:17:12;;;;;;;19.90;10.40;;;;;;;16.17;92.28;101293.97;5073057;28;20025;-47
2023/08/28 09:19:38;;;;;;;16.05;9.65;;;;;;;16.24;91.49;101292.78;5073212;28;20051;-46
2023/08/28 09:22:04;;;;;;;19.55;10.18;;;;;;;16.29;91.10;101292.09;5073048;28;20028;-46
2023/08/28 09:24:31;;;;;;;21.95;9.60;;;;;;;16.30;90.55;101293.72;5072796;28;20492;-46
2023/08/28 09:26:57;;;;;;;17.35;10.02;;;;;;;16.46;90.05;101287.66;5072735;28;20024;-46
2023/08/28 09:29:24;;;;;;;16.90;9.73;;;;;;;16.35;90.05;101283.88;5072860;28;20115;-48
2023/08/28 09:32:00;;;;;;;15.00;9.88;;;;;;;16.31;90.58;101290.78;5072796;28;20777;-47
2023/08/28 09:34:38;;;;;;;21.63;10.68;;;;;;;16.29;90.92;101292.09;5109885;28;20166;-50
2023/08/28 09:37:11;;;;;;;14.98;9.85;;;;;;;16.34;90.27;101290.34;5113134;28;20031;-48
2023/08/28 09:39:41;;;;;;;16.88;9.85;;;;;;;16.38;90.53;101290.72;5113223;28;20024;-49
2023/08/28 09:42:09;;;;;;;20.48;10.82;;;;;;;16.40;90.39;101288.59;5112717;28;20496;-48
2023/08/28 09:44:37;;;;;;;17.60;9.48;;;;;;;16.41;90.14;101284.00;5112921;28;20038;-48
2023/08/28 09:47:04;;;;;;;17.13;10.35;;;;;;;16.34;90.43;101282.22;5113050;28;20385;-47
2023/08/28 09:49:30;;;;;;;19.98;9.68;;;;;;;16.43;89.88;101288.09;5112941;28;20051;-47
2023/08/28 09:51:59;;;;;;;19.42;10.82;;;;;;;16.38;90.47;101282.59;5112608;28;20393;-48
2023/08/28 09:54:26;;;;;;;27.00;10.30;;;;;;;16.22;91.37;101278.69;5112743;28;20110;-47
2023/08/28 09:56:52;;;;;;;19.48;9.88;;;;;;;16.29;91.33;101273.19;5112725;28;20051;-47
2023/08/28 09:59:19;;;;;;;19.92;10.48;;;;;;;16.19;92.13;101284.56;5112727;28;20031;-46
2023/08/28 10:01:48;;;;;;;21.08;9.88;;;;;;;16.19;93.13;101281.03;5112661;28;20031;-47
2023/08/28 10:04:17;;;;;;;22.15;10.23;;;;;;;16.41;91.68;101286.69;5112479;28;20440;-48
2023/08/28 10:06:49;;;;;;;19.75;10.07;;;;;;;16.21;92.00;101282.47;5113097;28;20058;-46
2023/08/28 10:09:19;;;;;;;21.15;10.00;;;;;;;16.17;92.26;101283.16;5112360;28;20176;-47
2023/08/28 10:11:46;;;;;;;20.17;11.05;;;;;;;15.98;92.99;101291.31;5112348;28;20027;-47
2023/08/28 10:14:14;;;;;;;16.52;9.88;;;;;;;16.06;92.30;101282.06;5112367;28;20355;-48
2023/08/28 10:17:03;;;;;;;17.80;10.05;;;;;;;16.34;91.48;101284.13;5076877;28;20025;-48
2023/08/28 10:19:42;;;;;;;17.50;9.85;;;;;;;16.34;91.08;101290.34;5072060;28;20390;-47
2023/08/28 10:22:09;;;;;;;20.63;11.35;;;;;;;16.29;91.40;101284.81;5071741;28;20058;-47
2023/08/28 10:24:40;;;;;;;16.55;10.18;;;;;;;16.34;90.65;101276.84;5071729;28;20479;-48
2023/08/28 10:27:07;;;;;;;19.50;10.60;;;;;;;16.18;91.71;101282.09;5053838;28;20111;-46
2023/08/28 10:29:34;;;;;;;17.30;10.45;;;;;;;15.98;92.85;101266.19;5072011;28;20033;-47
2023/08/28 10:32:04;;;;;;;15.07;9.60;;;;;;;16.18;92.09;101277.50;5071782;28;20028;-49
2023/08/28 10:34:31;;;;;;;18.45;11.10;;;;;;;16.24;91.29;101276.56;5109456;28;20020;-47
2023/08/28 10:37:00;;;;;;;17.58;10.65;;;;;;;16.32;90.85;101273.56;5112043;28;20020;-48
2023/08/28 10:39:28;;;;;;;16.25;9.88;;;;;;;16.23;91.21;101282.22;5112160;28;20023;-47
2023/08/28 10:41:56;;;;;;;18.67;10.00;;;;;;;16.20;90.66;101272.69;5112101;28;20032;-48
2023/08/28 10:44:23;;;;;;;19.27;10.43;;;;;;;16.33;90.29;101277.06;5111904;28;20023;-48
2023/08/28 10:46:54;;;;;;;19.17;10.52;;;;;;;16.34;89.74;101284.13;5112145;28;20040;-47
2023/08/28 10:49:20;;;;;;;22.23;10.88;;;;;;;16.20;90.21;101279.97;5111900;28;20020;-47
2023/08/28 10:51:47;;;;;;;19.90;11.32;;;;;;;16.16;90.26;101281.47;5112223;28;20054;-47
2023/08/28 10:54:13;;;;;;;18.65;11.43;;;;;;;15.87;92.14;101277.78;5111856;28;20091;-48
2023/08/28 10:56:39;;;;;;;16.00;9.93;;;;;;;16.15;91.42;101280.66;5112081;28;20033;-47
2023/08/28 10:59:52;;;;;;;19.35;11.05;;;;;;;16.08;91.17;101280.78;5112207;28;20111;-49
2023/08/28 11:02:20;;;;;;;15.88;10.07;;;;;;;15.87;91.25;101273.19;5102669;28;20535;-47
2023/08/28 11:04:47;;;;;;;16.48;8.85;;;;;;;16.01;91.71;101281.94;5112029;28;20032;-47
2023/08/28 11:07:31;;;;;;;18.17;10.63;;;;;;;16.07;91.43;101281.00;5111545;28;20028;-50
2023/08/28 11:10:19;;;;;;;22.83;10.15;;;;;;;15.99;91.72;101279.47;5115235;28;20092;-48
2023/08/28 11:12:54;;;;;;;26.48;12.20;;;;;;;15.91;91.51;101279.78;5115874;28;20032;-48
2023/08/28 11:15:32;;;;;;;24.30;11.05;;;;;;;15.97;91.70;101292.38;5102606;28;20383;-49